createdAt,value
2022-11-11T00:01:40.042Z,99314.88
2022-11-11T00:04:08.810Z,99313.72
2022-11-11T00:06:36.148Z,99307.72
2022-11-11T00:09:04.073Z,99310.78
2022-11-11T00:11:31.474Z,99307.56
2022-11-11T00:13:58.915Z,99302.91
2022-11-11T00:16:46.327Z,99302.44
2022-11-11T00:19:32.924Z,99295.63
2022-11-11T00:22:17.620Z,99285.94
2022-11-11T00:25:02.481Z,99282.69
2022-11-11T00:27:29.918Z,99289.69
2022-11-11T00:29:57.364Z,99286.72
2022-11-11T00:32:27.071Z,99281.56
2022-11-11T00:35:15.161Z,99286.44
2022-11-11T00:37:44.456Z,99286.34
2022-11-11T00:40:13.550Z,99289.97
2022-11-11T00:42:41.411Z,99279.28
2022-11-11T00:45:10.856Z,99281.50
2022-11-11T00:47:55.796Z,99283.22
2022-11-11T00:50:46.733Z,99289.78
2022-11-11T00:53:15.775Z,99289.38
2022-11-11T00:55:43.348Z,99295.25
2022-11-11T00:58:11.091Z,99297.63
2022-11-11T01:00:38.569Z,99302.38
2022-11-11T01:03:06.361Z,99308.47
2022-11-11T01:05:35.146Z,99312.16
2022-11-11T01:08:02.527Z,99321.97
2022-11-11T01:10:39.560Z,99327.28
2022-11-11T01:13:14.076Z,99328.47
2022-11-11T01:15:43.049Z,99333.47
2022-11-11T01:18:11.859Z,99325.75
2022-11-11T01:20:41.630Z,99323.47
2022-11-11T01:23:11.580Z,99319.97
2022-11-11T01:25:41.386Z,99314.91
2022-11-11T01:28:09.911Z,99315.72
2022-11-11T01:30:38.839Z,99312.63
2022-11-11T01:33:06.335Z,99314.81
2022-11-11T01:35:33.981Z,99325.16
2022-11-11T01:38:02.887Z,99324.06
2022-11-11T01:40:31.488Z,99319.97
2022-11-11T01:43:19.207Z,99325.56
2022-11-11T01:45:54.532Z,99330.63
2022-11-11T01:48:46.272Z,99330.16
2022-11-11T01:51:20.391Z,99327.31
2022-11-11T01:54:03.801Z,99329.72
2022-11-11T01:56:32.025Z,99337.88
2022-11-11T01:59:04.203Z,99334.47
2022-11-11T02:01:31.919Z,99332.25
2022-11-11T02:04:23.121Z,99326.16
2022-11-11T02:06:54.405Z,99336.50
2022-11-11T02:09:25.324Z,99338.25
2022-11-11T02:12:12.601Z,99339.09
2022-11-11T02:14:43.159Z,99338.63
2022-11-11T02:17:14.376Z,99332.66
2022-11-11T02:19:49.565Z,99341.31
2022-11-11T02:22:24.399Z,99330.94
2022-11-11T02:24:55.228Z,99327.41
2022-11-11T02:27:25.609Z,99331.50
2022-11-11T02:29:56.708Z,99334.84
2022-11-11T02:32:24.564Z,99337.78
2022-11-11T02:34:52.270Z,99336.94
2022-11-11T02:37:25.735Z,99334.25
2022-11-11T02:40:05.406Z,99325.06
2022-11-11T02:42:36.622Z,99330.53
2022-11-11T02:45:04.696Z,99334.63
2022-11-11T02:47:32.331Z,99331.22
2022-11-11T02:49:59.874Z,99339.69
2022-11-11T02:52:27.527Z,99322.38
2022-11-11T02:54:56.476Z,99336.81
2022-11-11T02:57:24.279Z,99342.16
2022-11-11T02:59:51.815Z,99336.25
2022-11-11T03:02:19.298Z,99338.19
2022-11-11T03:04:46.830Z,99340.59
2022-11-11T03:07:14.421Z,99342.78
2022-11-11T03:09:41.935Z,99346.31
2022-11-11T03:12:10.910Z,99341.94
2022-11-11T03:14:38.579Z,99339.41
2022-11-11T03:17:23.832Z,99348.63
2022-11-11T03:19:51.772Z,99359.53
2022-11-11T03:25:23.683Z,99347.59
2022-11-11T03:27:52.443Z,99350.97
2022-11-11T03:30:19.923Z,99355.91
2022-11-11T03:32:47.348Z,99356.44
2022-11-11T03:35:14.775Z,99355.78
2022-11-11T03:37:59.982Z,99352.06
2022-11-11T03:40:29.168Z,99351.59
2022-11-11T03:43:03.848Z,99344.47
2022-11-11T03:45:31.970Z,99345.44
2022-11-11T03:47:59.524Z,99346.59
2022-11-11T03:50:27.013Z,99349.69
2022-11-11T03:52:54.459Z,99350.50
2022-11-11T03:55:21.897Z,99349.91
2022-11-11T03:57:49.368Z,99348.75
2022-11-11T04:00:21.398Z,99351.22
2022-11-11T04:03:06.659Z,99350.91
2022-11-11T04:05:51.804Z,99349.25
2022-11-11T04:08:38.219Z,99340.53
2022-11-11T04:11:09.971Z,99345.97
2022-11-11T04:13:55.193Z,99344.75
2022-11-11T04:16:23.998Z,99353.34
2022-11-11T04:19:09.182Z,99348.84
2022-11-11T04:21:45.883Z,99353.16
2022-11-11T04:24:32.847Z,99366.72
2022-11-11T04:27:01.762Z,99360.50
2022-11-11T04:29:28.986Z,99365.84
2022-11-11T04:32:17.754Z,99366.09
2022-11-11T04:34:47.131Z,99367.91
2022-11-11T04:37:15.632Z,99373.38
2022-11-11T04:40:00.950Z,99375.66
2022-11-11T04:42:29.480Z,99378.44
2022-11-11T04:45:14.928Z,99381.34
2022-11-11T04:47:55.958Z,99388.50
2022-11-11T04:50:23.994Z,99390.81
2022-11-11T04:52:53.283Z,99395.41
2022-11-11T04:55:38.412Z,99393.38
2022-11-11T04:58:05.887Z,99387.94
2022-11-11T05:00:33.377Z,99384.38
2022-11-11T05:03:18.268Z,99388.16
2022-11-11T05:06:04.596Z,99396.50
2022-11-11T05:08:49.923Z,99393.94
2022-11-11T05:11:18.394Z,99400.84
2022-11-11T05:14:03.265Z,99402.41
2022-11-11T05:16:51.494Z,99405.34
2022-11-11T05:19:38.024Z,99413.53
2022-11-11T05:22:12.576Z,99409.56
2022-11-11T05:24:57.535Z,99405.94
2022-11-11T05:27:25.200Z,99406.44
2022-11-11T05:29:52.615Z,99407.13
2022-11-11T05:32:21.813Z,99404.63
2022-11-11T05:34:50.879Z,99412.94
2022-11-11T05:37:18.608Z,99412.34
2022-11-11T05:39:46.675Z,99409.91
2022-11-11T05:42:14.298Z,99411.50
2022-11-11T05:44:41.831Z,99412.34
2022-11-11T05:47:09.506Z,99422.28
2022-11-11T05:49:36.976Z,99426.16
2022-11-11T05:52:07.179Z,99433.03
2022-11-11T05:54:34.658Z,99438.47
2022-11-11T05:57:02.193Z,99445.59
2022-11-11T05:59:29.622Z,99446.69
2022-11-11T06:01:57.167Z,99447.78
2022-11-11T06:04:24.650Z,99456.47
2022-11-11T06:06:52.094Z,99450.22
2022-11-11T06:09:20.895Z,99447.91
2022-11-11T06:11:48.628Z,99450.31
2022-11-11T06:14:16.070Z,99454.94
2022-11-11T06:16:43.494Z,99452.25
2022-11-11T06:19:10.936Z,99450.47
2022-11-11T06:21:52.311Z,99450.72
2022-11-11T06:24:25.263Z,99460.84
2022-11-11T06:26:54.899Z,99452.88
2022-11-11T06:29:22.370Z,99459.03
2022-11-11T06:31:49.864Z,99453.22
2022-11-11T06:34:17.421Z,99453.97
2022-11-11T06:36:44.875Z,99452.63
2022-11-11T06:39:12.307Z,99447.53
2022-11-11T06:41:41.101Z,99451.41
2022-11-11T06:44:08.543Z,99450.31
2022-11-11T06:46:36.034Z,99448.75
2022-11-11T06:49:03.689Z,99457.22
2022-11-11T06:51:31.140Z,99460.13
2022-11-11T06:53:58.578Z,99458.06
2022-11-11T06:56:26.092Z,99460.00
2022-11-11T06:58:54.879Z,99452.03
2022-11-11T07:01:22.347Z,99450.94
2022-11-11T07:03:49.816Z,99449.97
2022-11-11T07:06:17.237Z,99453.22
2022-11-11T07:08:44.713Z,99448.25
2022-11-11T07:11:18.386Z,99452.38
2022-11-11T07:13:46.341Z,99457.09
2022-11-11T07:16:15.086Z,99458.91
2022-11-11T07:18:42.546Z,99464.81
2022-11-11T07:21:10.029Z,99465.06
2022-11-11T07:23:37.474Z,99469.53
2022-11-11T07:26:05.047Z,99474.00
2022-11-11T07:28:32.473Z,99472.19
2022-11-11T07:31:00.022Z,99466.66
2022-11-11T07:33:28.822Z,99467.72
2022-11-11T07:35:56.270Z,99476.19
2022-11-11T07:38:24.065Z,99474.84
2022-11-11T07:40:58.012Z,99475.47
2022-11-11T07:43:25.539Z,99471.22
2022-11-11T07:45:53.066Z,99483.09
2022-11-11T07:48:20.474Z,99479.22
2022-11-11T07:50:49.292Z,99488.03
2022-11-11T07:53:16.750Z,99488.16
2022-11-11T07:55:46.048Z,99483.56
2022-11-11T07:58:13.521Z,99483.72
2022-11-11T08:00:41.357Z,99480.78
2022-11-11T08:03:09.209Z,99480.06
2022-11-11T08:05:36.885Z,99479.59
2022-11-11T08:08:07.281Z,99486.59
2022-11-11T08:10:35.707Z,99495.03
2022-11-11T08:13:20.899Z,99493.56
2022-11-11T08:15:48.843Z,99492.75
2022-11-11T08:18:16.265Z,99490.91
2022-11-11T08:20:46.551Z,99493.09
2022-11-11T08:24:10.558Z,99493.94
2022-11-11T08:26:11.031Z,99498.78
2022-11-11T08:28:38.467Z,99502.56
2022-11-11T08:31:05.999Z,99503.41
2022-11-11T08:33:34.983Z,99493.44
2022-11-11T08:36:03.352Z,99492.75
2022-11-11T08:38:32.401Z,99489.19
2022-11-11T08:41:00.933Z,99479.28
2022-11-11T08:43:36.822Z,99480.97
2022-11-11T08:46:05.934Z,99486.91
2022-11-11T08:48:33.763Z,99485.22
2022-11-11T08:51:01.301Z,99487.63
2022-11-11T08:53:29.190Z,99487.72
2022-11-11T08:55:57.942Z,99486.34
2022-11-11T08:58:25.395Z,99486.94
2022-11-11T09:00:52.868Z,99487.91
2022-11-11T09:03:20.352Z,99490.50
2022-11-11T09:05:48.281Z,99492.28
2022-11-11T09:08:15.785Z,99497.28
2022-11-11T09:10:43.300Z,99499.25
2022-11-11T09:13:12.180Z,99507.81
2022-11-11T09:15:39.495Z,99510.38
2022-11-11T09:18:06.988Z,99514.25
2022-11-11T09:20:34.471Z,99508.25
2022-11-11T09:23:01.899Z,99515.22
2022-11-11T09:25:29.333Z,99512.47
2022-11-11T09:27:57.718Z,99509.25
2022-11-11T09:30:27.621Z,99513.59
2022-11-11T09:32:55.481Z,99514.84
2022-11-11T09:35:22.960Z,99508.00
2022-11-11T09:37:57.243Z,99517.38
2022-11-11T09:40:27.991Z,99519.44
2022-11-11T09:43:06.442Z,99516.34
2022-11-11T09:45:45.975Z,99518.59
2022-11-11T09:48:35.639Z,99517.06
2022-11-11T09:51:07.219Z,99526.28
2022-11-11T09:53:39.741Z,99527.44
2022-11-11T09:56:29.771Z,99527.00
2022-11-11T09:59:03.953Z,99521.66
2022-11-11T10:01:38.925Z,99523.38
2022-11-11T10:04:13.435Z,99529.59
2022-11-11T10:06:41.250Z,99524.38
2022-11-11T10:09:18.510Z,99514.81
2022-11-11T10:11:52.632Z,99519.59
2022-11-11T10:14:20.328Z,99527.63
2022-11-11T10:17:00.532Z,99523.56
2022-11-11T10:19:31.911Z,99537.22
2022-11-11T10:22:16.830Z,99522.28
2022-11-11T10:24:51.181Z,99519.72
2022-11-11T10:27:21.148Z,99519.47
2022-11-11T10:29:50.524Z,99518.78
2022-11-11T10:32:22.809Z,99522.53
2022-11-11T10:34:50.288Z,99524.13
2022-11-11T10:37:20.903Z,99522.84
2022-11-11T10:40:01.591Z,99520.03
2022-11-11T10:42:29.065Z,99516.69
2022-11-11T10:45:03.833Z,99511.59
2022-11-11T10:47:44.824Z,99512.88
2022-11-11T10:50:21.203Z,99510.81
2022-11-11T10:52:55.520Z,99498.63
2022-11-11T10:55:27.218Z,99497.34
2022-11-11T10:58:00.082Z,99486.44
2022-11-11T11:00:28.778Z,99486.13
2022-11-11T11:03:00.606Z,99495.44
2022-11-11T11:05:33.427Z,99489.22
2022-11-11T11:08:08.046Z,99489.63
2022-11-11T11:10:41.690Z,99486.47
2022-11-11T11:13:16.312Z,99488.19
2022-11-11T11:15:49.115Z,99487.59
2022-11-11T11:18:19.876Z,99488.66
2022-11-11T11:20:57.226Z,99496.31
2022-11-11T11:23:37.131Z,99492.03
2022-11-11T11:26:05.158Z,99490.88
2022-11-11T11:28:34.412Z,99493.72
2022-11-11T11:31:03.879Z,99488.19
2022-11-11T11:33:54.539Z,99483.84
2022-11-11T11:36:22.312Z,99484.59
2022-11-11T11:38:51.507Z,99479.97
2022-11-11T11:41:36.368Z,99468.50
2022-11-11T11:44:04.051Z,99465.81
2022-11-11T11:46:38.388Z,99463.75
2022-11-11T11:49:21.342Z,99458.25
2022-11-11T11:51:58.791Z,99450.75
2022-11-11T11:54:47.757Z,99457.22
2022-11-11T11:57:30.488Z,99456.97
2022-11-11T12:00:04.039Z,99442.41
2022-11-11T12:02:51.997Z,99443.53
2022-11-11T12:05:27.403Z,99457.59
2022-11-11T12:08:15.383Z,99463.72
2022-11-11T12:10:50.581Z,99460.13
2022-11-11T12:13:31.505Z,99450.34
2022-11-11T12:16:04.428Z,99446.63
2022-11-11T12:19:02.499Z,99453.63
2022-11-11T12:21:40.992Z,99456.78
2022-11-11T12:24:32.155Z,99454.09
2022-11-11T12:27:15.491Z,99446.59
2022-11-11T12:29:55.140Z,99454.81
2022-11-11T12:32:45.930Z,99447.94
2022-11-11T12:35:32.129Z,99434.59
2022-11-11T12:38:17.406Z,99439.94
2022-11-11T12:40:59.859Z,99442.44
2022-11-11T12:43:35.785Z,99436.88
2022-11-11T12:46:12.538Z,99437.63
2022-11-11T12:48:55.619Z,99434.25
2022-11-11T12:51:38.226Z,99435.91
2022-11-11T12:54:20.756Z,99439.03
2022-11-11T12:56:56.135Z,99434.22
2022-11-11T12:59:34.172Z,99434.00
2022-11-11T13:02:17.272Z,99433.31
2022-11-11T13:04:56.071Z,99432.38
2022-11-11T13:07:53.600Z,99434.84
2022-11-11T13:10:31.158Z,99443.91
2022-11-11T13:13:14.300Z,99433.94
2022-11-11T13:15:42.084Z,99442.91
2022-11-11T13:18:16.279Z,99446.78
2022-11-11T13:20:55.271Z,99445.69
2022-11-11T13:23:25.603Z,99439.31
2022-11-11T13:26:01.897Z,99431.25
2022-11-11T13:28:33.987Z,99433.19
2022-11-11T13:31:15.709Z,99442.50
2022-11-11T13:33:47.692Z,99432.59
2022-11-11T13:36:18.637Z,99433.81
2022-11-11T13:38:49.639Z,99438.69
2022-11-11T13:41:25.472Z,99432.50
2022-11-11T13:43:55.780Z,99439.25
2022-11-11T13:46:38.923Z,99438.41
2022-11-11T13:49:09.793Z,99436.91
2022-11-11T13:51:41.877Z,99450.38
2022-11-11T13:54:24.988Z,99443.72
2022-11-11T13:56:55.083Z,99448.72
2022-11-11T13:59:26.851Z,99444.00
2022-11-11T14:02:29.156Z,99444.66
2022-11-11T14:05:22.855Z,99447.56
2022-11-11T14:07:56.357Z,99446.66
2022-11-11T14:10:50.627Z,99446.66
2022-11-11T14:13:41.196Z,99454.97
2022-11-11T14:16:53.599Z,99453.66
2022-11-11T14:19:32.720Z,99457.50
2022-11-11T14:22:01.541Z,99452.59
2022-11-11T14:24:37.043Z,99447.22
2022-11-11T14:27:15.560Z,99449.75
2022-11-11T14:29:52.515Z,99447.56
2022-11-11T14:32:35.746Z,99452.88
2022-11-11T14:35:16.331Z,99447.13
2022-11-11T14:38:04.266Z,99449.63
2022-11-11T14:40:33.793Z,99452.00
2022-11-11T14:43:22.010Z,99440.66
2022-11-11T14:45:55.182Z,99449.25
2022-11-11T14:48:50.599Z,99444.13
2022-11-11T14:51:41.509Z,99452.72
2022-11-11T14:54:21.703Z,99448.72
2022-11-11T14:57:01.830Z,99457.75
2022-11-11T14:59:32.583Z,99450.66
2022-11-11T15:02:02.487Z,99450.34
2022-11-11T15:04:37.667Z,99452.66
2022-11-11T15:07:09.020Z,99442.84
2022-11-11T15:09:50.955Z,99450.19
2022-11-11T15:12:27.400Z,99450.94
2022-11-11T15:15:03.884Z,99449.88
2022-11-11T15:17:42.469Z,99445.25
2022-11-11T15:20:27.618Z,99449.84
2022-11-11T15:23:03.928Z,99439.84
2022-11-11T15:25:46.316Z,99438.94
2022-11-11T15:28:36.953Z,99440.94
2022-11-11T15:31:16.257Z,99439.53
2022-11-11T15:33:53.784Z,99440.16
2022-11-11T15:36:34.222Z,99442.59
2022-11-11T15:39:08.133Z,99443.03
2022-11-11T15:41:38.964Z,99449.13
2022-11-11T15:44:14.641Z,99445.97
2022-11-11T15:46:44.152Z,99449.72
2022-11-11T15:49:15.840Z,99449.97
2022-11-11T15:51:43.550Z,99445.75
2022-11-11T15:54:17.800Z,99455.44
2022-11-11T15:56:45.381Z,99450.47
2022-11-11T15:59:23.738Z,99449.94
2022-11-11T16:01:52.339Z,99460.22
2022-11-11T16:04:53.963Z,99459.44
2022-11-11T16:07:19.732Z,99451.72
2022-11-11T16:09:47.335Z,99449.59
2022-11-11T16:12:20.525Z,99456.09
2022-11-11T16:14:51.288Z,99458.34
2022-11-11T16:17:20.543Z,99457.06
2022-11-11T16:19:51.005Z,99457.06
2022-11-11T16:22:22.514Z,99457.19
2022-11-11T16:24:51.499Z,99465.22
2022-11-11T16:27:21.944Z,99469.34
2022-11-11T16:29:49.386Z,99471.47
2022-11-11T16:32:34.244Z,99471.56
2022-11-11T16:35:03.339Z,99471.00
2022-11-11T16:37:30.820Z,99462.44
2022-11-11T16:40:18.353Z,99457.94
2022-11-11T16:42:46.032Z,99464.84
2022-11-11T16:45:20.957Z,99451.44
2022-11-11T16:47:49.977Z,99456.13
2022-11-11T16:50:22.927Z,99454.44
2022-11-11T16:52:54.061Z,99459.25
2022-11-11T16:55:27.057Z,99464.03
2022-11-11T16:57:55.107Z,99449.94
2022-11-11T17:00:24.756Z,99456.28
2022-11-11T17:03:10.184Z,99445.19
2022-11-11T17:06:00.603Z,99448.41
2022-11-11T17:08:35.019Z,99447.31
2022-11-11T17:11:02.652Z,99451.47
2022-11-11T17:13:30.244Z,99448.00
2022-11-11T17:16:04.144Z,99454.59
2022-11-11T17:18:33.643Z,99454.88
2022-11-11T17:21:02.888Z,99452.88
2022-11-11T17:23:30.377Z,99438.16
2022-11-11T17:26:00.003Z,99436.16
2022-11-11T17:28:28.791Z,99435.59
2022-11-11T17:30:56.224Z,99432.38
2022-11-11T17:33:27.197Z,99432.66
2022-11-11T17:35:57.902Z,99427.88
2022-11-11T17:38:26.680Z,99435.16
2022-11-11T17:40:54.242Z,99431.97
2022-11-11T17:43:21.771Z,99432.25
2022-11-11T17:45:49.241Z,99434.06
2022-11-11T17:48:16.647Z,99437.88
2022-11-11T17:50:44.088Z,99445.16
2022-11-11T17:53:16.401Z,99442.38
2022-11-11T17:55:53.119Z,99441.50
2022-11-11T17:58:20.591Z,99439.00
2022-11-11T18:00:48.045Z,99436.34
2022-11-11T18:03:15.516Z,99443.63
2022-11-11T18:05:42.940Z,99442.22
2022-11-11T18:08:10.391Z,99440.41
2022-11-11T18:10:37.867Z,99445.75
2022-11-11T18:13:06.652Z,99454.59
2022-11-11T18:15:34.799Z,99455.72
2022-11-11T18:18:02.243Z,99462.78
2022-11-11T18:20:29.679Z,99465.84
2022-11-11T18:22:57.400Z,99465.00
2022-11-11T18:25:24.998Z,99467.69
2022-11-11T18:27:54.130Z,99468.66
2022-11-11T18:30:22.939Z,99469.63
2022-11-11T18:32:50.393Z,99467.97
2022-11-11T18:35:18.578Z,99466.56
2022-11-11T18:37:46.883Z,99472.88
2022-11-11T18:40:14.770Z,99468.50
2022-11-11T18:42:42.251Z,99465.69
2022-11-11T18:45:10.195Z,99480.88
2022-11-11T18:47:38.961Z,99478.75
2022-11-11T18:50:06.612Z,99477.22
2022-11-11T18:52:34.044Z,99478.06
2022-11-11T18:55:01.493Z,99478.47
2022-11-11T18:57:28.911Z,99475.78
2022-11-11T18:59:56.366Z,99480.56
2022-11-11T19:02:23.821Z,99484.38
2022-11-11T19:04:52.641Z,99482.56
2022-11-11T19:07:20.125Z,99473.53
2022-11-11T19:09:47.603Z,99476.19
2022-11-11T19:12:15.063Z,99473.78
2022-11-11T19:14:42.484Z,99481.09
2022-11-11T19:17:10.122Z,99468.72
2022-11-11T19:19:37.573Z,99479.41
2022-11-11T19:22:06.324Z,99477.94
2022-11-11T19:24:34.056Z,99486.00
2022-11-11T19:27:01.634Z,99486.31
2022-11-11T19:29:29.083Z,99478.13
2022-11-11T19:31:56.548Z,99479.09
2022-11-11T19:34:23.968Z,99486.56
2022-11-11T19:36:51.409Z,99485.41
2022-11-11T19:39:20.263Z,99486.41
2022-11-11T19:41:47.746Z,99480.06
2022-11-11T19:44:15.213Z,99476.41
2022-11-11T19:46:43.257Z,99484.56
2022-11-11T19:49:10.938Z,99480.19
2022-11-11T19:51:38.398Z,99484.56
2022-11-11T19:54:05.883Z,99486.50
2022-11-11T19:56:35.392Z,99487.63
2022-11-11T19:59:04.013Z,99492.97
2022-11-11T20:01:33.893Z,99494.06
2022-11-11T20:04:01.376Z,99503.06
2022-11-11T20:06:30.489Z,99507.69
2022-11-11T20:09:01.006Z,99513.19
2022-11-11T20:11:29.345Z,99507.69
2022-11-11T20:13:58.628Z,99514.25
2022-11-11T20:16:26.184Z,99508.06
2022-11-11T20:18:55.609Z,99516.34
2022-11-11T20:21:23.293Z,99517.59
2022-11-11T20:23:50.716Z,99518.75
2022-11-11T20:26:18.327Z,99527.31
2022-11-11T20:28:45.891Z,99527.44
2022-11-11T20:31:16.877Z,99530.06
2022-11-11T20:33:44.936Z,99540.47
2022-11-11T20:36:14.549Z,99535.25
2022-11-11T20:38:42.034Z,99538.91
2022-11-11T20:41:12.208Z,99538.66
2022-11-11T20:43:40.066Z,99540.78
2022-11-11T20:46:09.479Z,99535.53
2022-11-11T20:48:40.503Z,99533.25
2022-11-11T20:51:10.656Z,99535.03
2022-11-11T20:53:38.540Z,99530.47
2022-11-11T20:56:07.862Z,99520.88
2022-11-11T20:58:36.244Z,99517.41
2022-11-11T21:01:04.033Z,99527.84
2022-11-11T21:03:32.308Z,99528.38
2022-11-11T21:06:05.761Z,99519.31
2022-11-11T21:08:33.511Z,99513.09
2022-11-11T21:11:01.360Z,99522.19
2022-11-11T21:13:30.133Z,99510.16
2022-11-11T21:16:03.183Z,99508.78
2022-11-11T21:18:30.948Z,99503.44
2022-11-11T21:20:58.398Z,99505.88
2022-11-11T21:23:27.651Z,99508.66
2022-11-11T21:26:01.934Z,99512.44
2022-11-11T21:28:29.424Z,99509.13
2022-11-11T21:30:59.282Z,99510.47
2022-11-11T21:33:27.108Z,99509.63
2022-11-11T21:36:01.110Z,99512.03
2022-11-11T21:38:29.906Z,99509.50
2022-11-11T21:41:01.778Z,99510.19
2022-11-11T21:43:29.264Z,99511.44
2022-11-11T21:46:00.375Z,99511.59
2022-11-11T21:48:27.867Z,99511.13
2022-11-11T21:51:02.123Z,99511.72
2022-11-11T21:53:30.930Z,99506.53
2022-11-11T21:56:02.071Z,99507.50
2022-11-11T21:58:30.146Z,99514.53
2022-11-11T22:01:04.875Z,99512.69
2022-11-11T22:03:33.029Z,99517.69
2022-11-11T22:06:05.688Z,99515.03
2022-11-11T22:08:35.088Z,99519.25
2022-11-11T22:11:04.373Z,99529.88
2022-11-11T22:13:32.341Z,99524.38
2022-11-11T22:16:01.699Z,99529.13
2022-11-11T22:18:29.424Z,99525.78
2022-11-11T22:21:03.541Z,99528.44
2022-11-11T22:23:31.108Z,99531.00
2022-11-11T22:26:03.959Z,99537.03
2022-11-11T22:28:31.833Z,99530.00
2022-11-11T22:31:06.779Z,99533.66
2022-11-11T22:33:34.088Z,99539.09
2022-11-11T22:36:03.023Z,99529.09
2022-11-11T22:38:30.781Z,99530.91
2022-11-11T22:41:03.624Z,99524.59
2022-11-11T22:43:57.876Z,99522.91
2022-11-11T22:46:24.851Z,99524.34
2022-11-11T22:48:55.125Z,99527.59
2022-11-11T22:51:24.146Z,99533.19
2022-11-11T22:53:55.875Z,99528.13
2022-11-11T22:56:25.572Z,99520.50
2022-11-11T22:58:53.372Z,99529.34
2022-11-11T23:01:27.953Z,99521.22
2022-11-11T23:03:58.111Z,99531.19
2022-11-11T23:06:28.068Z,99527.94
2022-11-11T23:08:55.572Z,99523.41
2022-11-11T23:11:26.317Z,99525.06
2022-11-11T23:13:59.260Z,99523.09
2022-11-11T23:16:26.707Z,99521.75
2022-11-11T23:18:54.155Z,99511.84
2022-11-11T23:21:23.655Z,99511.50
2022-11-11T23:23:52.181Z,99512.34
2022-11-11T23:26:21.575Z,99508.81
2022-11-11T23:28:50.571Z,99512.34
2022-11-11T23:31:20.842Z,99503.72
2022-11-11T23:33:50.507Z,99506.16
2022-11-11T23:36:20.255Z,99504.47
2022-11-11T23:38:48.289Z,99500.25
2022-11-11T23:41:16.142Z,99496.97
2022-11-11T23:43:43.847Z,99494.28
2022-11-11T23:46:12.940Z,99493.72
2022-11-11T23:48:40.440Z,99498.81
2022-11-11T23:51:08.259Z,99506.81
2022-11-11T23:53:35.725Z,99496.53
2022-11-11T23:56:03.493Z,99501.25
2022-11-11T23:58:31.352Z,99497.75
